createdAt,value
2018-08-31T00:01:56.480Z,52.70
2018-08-31T00:05:48.877Z,53.30
2018-08-31T00:09:10.076Z,53.20
2018-08-31T00:12:49.384Z,53.80
2018-08-31T00:15:19.944Z,54.00
2018-08-31T00:17:50.260Z,54.30
2018-08-31T00:20:20.574Z,54.50
2018-08-31T00:22:50.849Z,55.00
2018-08-31T00:26:35.583Z,54.90
2018-08-31T00:29:53.536Z,55.20
2018-08-31T00:33:09.022Z,55.20
2018-08-31T00:38:01.805Z,55.10
2018-08-31T00:43:01.845Z,54.80
2018-08-31T00:45:36.559Z,54.70
2018-08-31T00:48:07.149Z,54.40
2018-08-31T00:50:37.643Z,54.60
2018-08-31T00:53:08.094Z,55.10
2018-08-31T00:55:38.393Z,55.10
2018-08-31T00:58:08.928Z,55.00
2018-08-31T01:00:39.488Z,55.00
2018-08-31T01:03:10.018Z,54.70
2018-08-31T01:05:40.592Z,54.70
2018-08-31T01:08:11.133Z,54.80
2018-08-31T01:10:41.697Z,54.60
2018-08-31T01:13:14.861Z,54.50
2018-08-31T01:15:45.164Z,54.40
2018-08-31T01:18:15.444Z,54.30
2018-08-31T01:20:45.736Z,54.00
2018-08-31T01:23:16.816Z,54.00
2018-08-31T01:25:47.129Z,54.20
2018-08-31T01:28:17.398Z,54.10
2018-08-31T01:30:48.007Z,54.10
2018-08-31T01:33:18.535Z,54.00
2018-08-31T01:35:48.844Z,54.00
2018-08-31T01:38:19.129Z,54.00
2018-08-31T01:40:49.432Z,54.40
2018-08-31T01:43:19.705Z,54.00
2018-08-31T01:45:50.268Z,53.90
2018-08-31T01:48:20.557Z,53.90
2018-08-31T01:50:56.248Z,53.90
2018-08-31T01:53:28.715Z,53.90
2018-08-31T01:55:59.015Z,54.10
2018-08-31T01:58:29.539Z,54.30
2018-08-31T02:01:00.093Z,54.40
2018-08-31T02:03:30.364Z,54.70
2018-08-31T02:06:00.687Z,54.80
2018-08-31T02:08:30.956Z,54.80
2018-08-31T02:11:01.281Z,55.00
2018-08-31T02:13:31.591Z,55.10
2018-08-31T02:16:02.091Z,55.30
2018-08-31T02:18:32.384Z,55.50
2018-08-31T02:21:02.936Z,55.50
2018-08-31T02:23:33.226Z,55.40
2018-08-31T02:26:03.785Z,55.60
2018-08-31T02:28:34.060Z,55.80
2018-08-31T02:31:04.370Z,55.70
2018-08-31T02:33:34.905Z,55.80
2018-08-31T02:36:05.213Z,55.70
2018-08-31T02:38:35.505Z,55.40
2018-08-31T02:41:06.071Z,55.20
2018-08-31T02:43:36.364Z,55.30
2018-08-31T02:46:06.761Z,55.40
2018-08-31T02:48:37.292Z,55.50
2018-08-31T02:51:07.855Z,55.50
2018-08-31T02:53:38.178Z,55.60
2018-08-31T02:56:08.813Z,55.90
2018-08-31T02:58:39.360Z,55.40
2018-08-31T03:01:09.684Z,55.00
2018-08-31T03:03:40.237Z,54.70
2018-08-31T03:06:10.632Z,54.60
2018-08-31T03:08:40.980Z,54.60
2018-08-31T03:11:11.313Z,55.10
2018-08-31T03:13:41.877Z,55.20
2018-08-31T03:16:12.216Z,55.20
2018-08-31T03:18:42.532Z,55.00
2018-08-31T03:21:12.930Z,55.00
2018-08-31T03:23:43.417Z,54.70
2018-08-31T03:26:13.752Z,55.40
2018-08-31T03:28:44.329Z,55.00
2018-08-31T03:31:15.121Z,54.40
2018-08-31T03:33:45.697Z,54.90
2018-08-31T03:36:16.049Z,55.20
2018-08-31T03:38:46.654Z,55.00
2018-08-31T03:41:17.028Z,54.90
2018-08-31T03:43:47.338Z,54.70
2018-08-31T03:46:18.001Z,54.70
2018-08-31T03:48:48.328Z,54.80
2018-08-31T03:51:18.773Z,54.50
2018-08-31T03:53:49.126Z,54.80
2018-08-31T03:56:19.476Z,54.70
2018-08-31T03:58:50.077Z,54.70
2018-08-31T04:01:20.420Z,54.70
2018-08-31T04:03:51.007Z,54.60
2018-08-31T04:06:21.593Z,54.60
2018-08-31T04:08:51.896Z,54.50
2018-08-31T04:11:22.276Z,54.50
2018-08-31T04:13:52.595Z,54.50
2018-08-31T04:16:22.942Z,54.60
2018-08-31T04:18:53.270Z,54.40
2018-08-31T04:21:24.042Z,54.70
2018-08-31T04:23:54.609Z,54.50
2018-08-31T04:26:24.928Z,54.70
2018-08-31T04:28:55.523Z,54.70
2018-08-31T04:31:27.811Z,54.60
2018-08-31T04:34:10.923Z,54.80
2018-08-31T04:36:42.333Z,55.20
2018-08-31T04:39:13.609Z,55.30
2018-08-31T04:41:44.691Z,55.10
2018-08-31T04:44:15.012Z,55.30
2018-08-31T04:46:45.401Z,55.20
2018-08-31T04:49:15.972Z,55.30
2018-08-31T04:51:46.293Z,55.30
2018-08-31T04:54:16.599Z,55.30
2018-08-31T04:56:47.234Z,55.10
2018-08-31T04:59:17.837Z,55.10
2018-08-31T05:01:48.192Z,55.30
2018-08-31T05:04:18.670Z,55.20
2018-08-31T05:06:49.290Z,55.20
2018-08-31T05:09:20.069Z,55.30
2018-08-31T05:11:50.492Z,54.90
2018-08-31T05:14:20.833Z,55.20
2018-08-31T05:16:51.193Z,55.30
2018-08-31T05:19:21.769Z,55.60
2018-08-31T05:21:52.663Z,55.50
2018-08-31T05:24:25.045Z,55.30
2018-08-31T05:26:55.667Z,55.30
2018-08-31T05:29:26.289Z,55.70
2018-08-31T05:31:56.894Z,55.40
2018-08-31T05:34:27.248Z,55.30
2018-08-31T05:36:57.845Z,55.30
2018-08-31T05:39:28.179Z,55.40
2018-08-31T05:41:58.567Z,55.40
2018-08-31T05:44:29.166Z,55.50
2018-08-31T05:46:59.773Z,55.40
2018-08-31T05:49:30.365Z,55.40
2018-08-31T05:52:00.765Z,55.60
2018-08-31T05:54:31.553Z,55.70
2018-08-31T05:57:01.918Z,55.60
2018-08-31T05:59:32.278Z,55.70
2018-08-31T06:02:03.241Z,55.90
2018-08-31T06:04:33.765Z,55.90
2018-08-31T06:07:04.128Z,56.00
2018-08-31T06:09:34.473Z,55.90
2018-08-31T06:12:04.832Z,56.00
2018-08-31T06:14:35.589Z,56.00
2018-08-31T06:17:05.896Z,55.90
2018-08-31T06:19:36.487Z,56.00
2018-08-31T06:22:07.344Z,55.90
2018-08-31T06:24:37.660Z,56.00
2018-08-31T06:27:08.215Z,55.90
2018-08-31T06:29:38.549Z,55.80
2018-08-31T06:32:08.836Z,55.90
2018-08-31T06:34:39.171Z,56.00
2018-08-31T06:37:09.712Z,56.00
2018-08-31T06:39:40.008Z,56.30
2018-08-31T06:42:10.572Z,56.10
2018-08-31T06:44:40.885Z,56.10
2018-08-31T06:47:11.174Z,56.20
2018-08-31T06:49:41.550Z,56.20
2018-08-31T06:52:11.833Z,56.10
2018-08-31T06:54:42.404Z,56.20
2018-08-31T06:57:12.708Z,56.20
2018-08-31T06:59:43.379Z,56.20
2018-08-31T07:02:13.916Z,56.60
2018-08-31T07:04:44.320Z,56.40
2018-08-31T07:07:14.746Z,56.40
2018-08-31T07:09:45.110Z,56.40
2018-08-31T07:12:15.546Z,56.50
2018-08-31T07:14:46.013Z,56.30
2018-08-31T07:17:16.341Z,56.50
2018-08-31T07:19:46.946Z,56.80
2018-08-31T07:22:17.707Z,56.60
2018-08-31T07:24:48.060Z,56.70
2018-08-31T07:27:18.592Z,56.90
2018-08-31T07:29:49.029Z,57.00
2018-08-31T07:32:19.420Z,57.00
2018-08-31T07:34:50.431Z,56.90
2018-08-31T07:37:21.201Z,57.00
2018-08-31T07:39:51.801Z,57.10
2018-08-31T07:42:22.146Z,57.40
2018-08-31T07:44:52.801Z,57.50
2018-08-31T07:47:23.160Z,57.30
2018-08-31T07:49:53.938Z,57.50
2018-08-31T07:52:24.525Z,57.50
2018-08-31T07:54:55.176Z,57.30
2018-08-31T07:57:25.504Z,57.40
2018-08-31T07:59:55.888Z,57.10
2018-08-31T08:02:26.564Z,56.90
2018-08-31T08:04:57.188Z,56.60
2018-08-31T08:07:27.834Z,56.70
2018-08-31T08:09:58.300Z,56.70
2018-08-31T08:12:28.638Z,56.40
2018-08-31T08:14:58.965Z,56.40
2018-08-31T08:17:29.265Z,56.60
2018-08-31T08:19:59.849Z,56.40
2018-08-31T08:22:30.401Z,56.30
2018-08-31T08:25:00.964Z,56.30
2018-08-31T08:27:31.510Z,56.40
2018-08-31T08:30:02.078Z,56.90
2018-08-31T08:32:32.616Z,56.40
2018-08-31T08:35:02.941Z,56.20
2018-08-31T08:37:33.246Z,56.30
2018-08-31T08:40:03.573Z,56.30
2018-08-31T08:42:33.922Z,56.20
2018-08-31T08:45:04.428Z,56.90
2018-08-31T08:47:34.728Z,56.30
2018-08-31T08:50:05.861Z,56.40
2018-08-31T08:52:36.492Z,56.30
2018-08-31T08:55:07.037Z,56.50
2018-08-31T08:57:37.584Z,56.50
2018-08-31T09:00:08.000Z,56.50
2018-08-31T09:02:38.291Z,56.50
2018-08-31T09:05:08.917Z,56.60
2018-08-31T09:07:39.237Z,56.60
2018-08-31T09:10:09.835Z,56.50
2018-08-31T09:12:40.398Z,56.50
2018-08-31T09:15:10.748Z,56.50
2018-08-31T09:17:41.421Z,56.40
2018-08-31T09:20:11.819Z,56.60
2018-08-31T09:22:42.557Z,56.80
2018-08-31T09:25:12.897Z,56.80
2018-08-31T09:27:43.264Z,57.00
2018-08-31T09:30:18.790Z,57.10
2018-08-31T09:32:49.262Z,56.90
2018-08-31T09:35:19.881Z,56.80
2018-08-31T09:37:50.207Z,56.90
2018-08-31T09:40:20.792Z,56.80
2018-08-31T09:42:51.544Z,56.90
2018-08-31T09:45:26.673Z,57.00
2018-08-31T09:47:57.265Z,56.90
2018-08-31T09:50:27.589Z,56.80
2018-08-31T09:52:57.982Z,56.90
2018-08-31T09:55:28.748Z,57.00
2018-08-31T09:57:59.276Z,57.00
2018-08-31T10:00:34.712Z,56.80
2018-08-31T10:03:10.965Z,56.90
2018-08-31T10:05:41.360Z,56.90
2018-08-31T10:08:11.941Z,56.80
2018-08-31T10:10:42.339Z,57.40
2018-08-31T10:13:12.841Z,56.90
2018-08-31T10:15:43.989Z,56.90
2018-08-31T10:18:14.318Z,57.00
2018-08-31T10:20:44.650Z,57.00
2018-08-31T10:23:14.992Z,57.00
2018-08-31T10:25:45.316Z,57.00
2018-08-31T10:28:15.956Z,56.90
2018-08-31T10:30:46.598Z,56.50
2018-08-31T10:33:16.912Z,56.40
2018-08-31T10:35:47.260Z,56.60
2018-08-31T10:38:17.579Z,56.80
2018-08-31T10:40:48.185Z,56.70
2018-08-31T10:43:18.533Z,56.60
2018-08-31T10:45:48.883Z,56.00
2018-08-31T10:48:19.207Z,56.00
2018-08-31T10:50:49.816Z,56.10
2018-08-31T10:53:20.131Z,56.10
2018-08-31T10:55:50.475Z,56.00
2018-08-31T11:01:32.374Z,55.30
2018-08-31T11:04:03.006Z,54.50
2018-08-31T11:06:34.219Z,54.60
2018-08-31T11:09:05.614Z,54.70
2018-08-31T11:11:36.083Z,54.20
2018-08-31T11:14:07.029Z,54.20
2018-08-31T11:16:37.419Z,54.30
2018-08-31T11:19:08.000Z,54.20
2018-08-31T11:21:45.283Z,53.90
2018-08-31T11:24:15.946Z,54.20
2018-08-31T11:26:46.330Z,53.80
2018-08-31T11:29:16.794Z,53.70
2018-08-31T11:31:47.429Z,53.80
2018-08-31T11:34:18.125Z,53.60
2018-08-31T11:36:48.983Z,53.60
2018-08-31T11:39:19.418Z,53.80
2018-08-31T11:41:50.075Z,53.60
2018-08-31T11:44:20.721Z,53.70
2018-08-31T11:46:51.168Z,53.60
2018-08-31T11:49:21.561Z,53.60
2018-08-31T11:51:51.964Z,53.70
2018-08-31T11:54:22.328Z,53.80
2018-08-31T11:56:52.792Z,54.00
2018-08-31T11:59:23.670Z,54.10
2018-08-31T12:01:54.011Z,54.10
2018-08-31T12:04:24.425Z,54.20
2018-08-31T12:06:54.823Z,53.80
2018-08-31T12:09:25.182Z,54.00
2018-08-31T12:11:55.754Z,53.70
2018-08-31T12:14:26.100Z,53.50
2018-08-31T12:16:56.440Z,53.40
2018-08-31T12:19:26.753Z,53.30
2018-08-31T12:21:57.069Z,53.30
2018-08-31T12:24:27.403Z,53.20
2018-08-31T12:26:57.806Z,53.50
2018-08-31T12:29:28.174Z,53.40
2018-08-31T12:31:58.534Z,53.30
2018-08-31T12:34:29.381Z,53.00
2018-08-31T12:37:00.002Z,52.80
2018-08-31T12:39:30.595Z,52.80
2018-08-31T12:42:00.996Z,52.60
2018-08-31T12:44:31.612Z,52.70
2018-08-31T12:47:01.973Z,52.70
2018-08-31T12:49:32.325Z,52.40
2018-08-31T12:52:03.206Z,52.30
2018-08-31T12:54:33.639Z,52.40
2018-08-31T12:57:05.082Z,52.30
2018-08-31T12:59:35.457Z,52.20
2018-08-31T13:02:05.829Z,52.10
2018-08-31T13:04:36.462Z,51.60
2018-08-31T13:07:06.978Z,51.90
2018-08-31T13:09:37.695Z,51.70
2018-08-31T13:12:08.069Z,51.80
2018-08-31T13:14:38.421Z,51.40
2018-08-31T13:17:09.062Z,51.80
2018-08-31T13:19:39.461Z,51.20
2018-08-31T13:22:16.191Z,51.80
2018-08-31T13:24:46.539Z,51.90
2018-08-31T13:27:16.863Z,51.40
2018-08-31T13:29:47.152Z,51.30
2018-08-31T13:32:17.488Z,51.50
2018-08-31T13:34:47.857Z,51.40
2018-08-31T13:37:18.317Z,51.70
2018-08-31T13:39:50.366Z,51.00
2018-08-31T13:42:21.672Z,50.40
2018-08-31T13:44:53.799Z,51.00
2018-08-31T13:47:25.776Z,50.70
2018-08-31T13:49:56.837Z,51.20
2018-08-31T13:52:27.317Z,50.70
2018-08-31T13:54:58.080Z,50.90
2018-08-31T13:57:29.080Z,50.60
2018-08-31T14:00:00.671Z,51.10
2018-08-31T14:02:31.936Z,50.80
2018-08-31T14:05:02.405Z,51.60
2018-08-31T14:07:32.732Z,51.00
2018-08-31T14:10:03.021Z,50.60
2018-08-31T14:12:33.497Z,50.70
2018-08-31T14:15:04.084Z,50.60
2018-08-31T14:17:34.463Z,51.20
2018-08-31T14:20:05.208Z,50.60
2018-08-31T14:22:35.989Z,50.30
2018-08-31T14:25:06.311Z,50.70
2018-08-31T14:27:36.619Z,50.30
2018-08-31T14:30:18.279Z,50.60
2018-08-31T14:32:48.847Z,50.10
2018-08-31T14:35:19.144Z,50.60
2018-08-31T14:37:49.689Z,51.00
2018-08-31T14:40:20.235Z,51.10
2018-08-31T14:42:50.553Z,50.70
2018-08-31T14:45:21.094Z,50.70
2018-08-31T14:47:51.724Z,50.30
2018-08-31T14:50:21.995Z,50.70
2018-08-31T14:53:06.708Z,50.70
2018-08-31T14:55:37.700Z,50.60
2018-08-31T14:58:08.256Z,51.60
2018-08-31T15:00:38.569Z,50.70
2018-08-31T15:03:08.880Z,50.80
2018-08-31T15:05:39.212Z,50.90
2018-08-31T15:08:10.005Z,50.60
2018-08-31T15:10:40.312Z,50.50
2018-08-31T15:13:10.698Z,50.50
2018-08-31T15:15:41.128Z,50.50
2018-08-31T15:18:11.445Z,49.80
2018-08-31T15:20:42.001Z,49.70
2018-08-31T15:23:12.304Z,49.60
2018-08-31T15:25:42.610Z,49.80
2018-08-31T15:37:38.631Z,49.90
2018-08-31T15:40:10.661Z,50.30
2018-08-31T15:42:42.624Z,50.40
2018-08-31T15:45:14.251Z,50.60
2018-08-31T15:47:47.032Z,50.70
2018-08-31T15:50:21.146Z,50.50
2018-08-31T15:52:52.356Z,50.50
2018-08-31T15:55:23.621Z,50.50
2018-08-31T15:57:55.195Z,50.90
2018-08-31T16:00:26.815Z,50.90
2018-08-31T16:03:00.272Z,51.20
2018-08-31T16:05:32.335Z,51.00
2018-08-31T16:08:03.760Z,51.00
2018-08-31T16:10:36.782Z,50.90
2018-08-31T16:13:09.530Z,50.90
2018-08-31T16:15:42.587Z,50.80
2018-08-31T16:18:15.044Z,50.90
2018-08-31T16:20:48.200Z,51.00
2018-08-31T16:23:19.722Z,51.10
2018-08-31T16:25:51.367Z,51.20
2018-08-31T16:28:24.037Z,51.30
2018-08-31T16:30:55.457Z,51.40
2018-08-31T16:33:28.973Z,51.50
2018-08-31T16:36:02.763Z,51.60
2018-08-31T16:38:40.246Z,51.70
2018-08-31T16:41:11.220Z,51.60
2018-08-31T16:59:36.863Z,51.70
2018-08-31T17:02:07.194Z,51.90
2018-08-31T17:04:37.525Z,52.70
2018-08-31T17:07:09.771Z,52.20
2018-08-31T17:09:40.336Z,52.30
2018-08-31T17:12:10.630Z,52.40
2018-08-31T17:14:40.955Z,52.50
2018-08-31T17:17:11.513Z,52.50
2018-08-31T17:19:41.820Z,52.40
2018-08-31T17:22:12.104Z,52.50
2018-08-31T17:24:42.437Z,52.60
2018-08-31T17:27:18.026Z,52.60
2018-08-31T17:29:48.986Z,52.60
2018-08-31T17:32:24.532Z,52.70
2018-08-31T17:35:00.062Z,52.80
2018-08-31T17:37:34.685Z,52.90
2018-08-31T17:40:04.996Z,53.00
2018-08-31T17:42:39.912Z,53.10
2018-08-31T17:45:12.280Z,53.20
2018-08-31T17:47:42.584Z,53.20
2018-08-31T17:50:12.884Z,53.10
2018-08-31T17:52:43.207Z,53.20
2018-08-31T17:55:13.569Z,53.70
2018-08-31T17:57:44.263Z,53.80
2018-08-31T18:00:14.825Z,53.20
2018-08-31T18:02:45.148Z,53.30
2018-08-31T18:05:15.752Z,53.50
2018-08-31T18:07:46.067Z,53.60
2018-08-31T18:10:16.393Z,53.60
2018-08-31T18:12:46.688Z,53.80
2018-08-31T18:15:17.300Z,54.10
2018-08-31T18:17:47.765Z,54.00
2018-08-31T18:20:18.088Z,54.00
2018-08-31T18:22:48.409Z,54.30
2018-08-31T18:25:18.713Z,54.60
2018-08-31T18:27:49.033Z,54.60
2018-08-31T18:30:19.629Z,54.60
2018-08-31T18:32:49.941Z,54.70
2018-08-31T18:35:20.542Z,54.30
2018-08-31T18:37:50.855Z,54.50
2018-08-31T18:40:21.445Z,54.70
2018-08-31T18:42:52.073Z,54.70
2018-08-31T18:45:22.408Z,55.10
2018-08-31T18:47:52.705Z,55.20
2018-08-31T18:50:23.042Z,55.20
2018-08-31T18:52:53.441Z,55.40
2018-08-31T18:55:24.056Z,55.50
2018-08-31T18:57:54.472Z,55.60
2018-08-31T19:00:25.208Z,55.80
2018-08-31T19:02:55.522Z,55.60
2018-08-31T19:05:25.892Z,55.40
2018-08-31T19:07:56.481Z,55.50
2018-08-31T19:10:27.093Z,55.60
2018-08-31T19:12:57.505Z,56.00
2018-08-31T19:15:28.005Z,56.10
2018-08-31T19:17:58.432Z,56.00
2018-08-31T19:20:29.037Z,56.30
2018-08-31T19:22:59.405Z,56.20
2018-08-31T19:25:30.010Z,56.30
2018-08-31T19:28:00.339Z,56.50
2018-08-31T19:30:31.002Z,56.50
2018-08-31T19:33:01.399Z,56.60
2018-08-31T19:35:31.765Z,56.60
2018-08-31T19:38:02.117Z,56.60
2018-08-31T19:40:32.480Z,56.60
2018-08-31T19:43:03.045Z,56.70
2018-08-31T19:45:33.639Z,56.70
2018-08-31T19:48:03.992Z,56.70
2018-08-31T19:50:34.330Z,56.70
2018-08-31T19:53:04.928Z,56.60
2018-08-31T19:55:35.506Z,56.70
2018-08-31T19:58:06.592Z,56.60
2018-08-31T20:00:36.999Z,56.80
2018-08-31T20:03:07.342Z,56.80
2018-08-31T20:05:37.675Z,56.80
2018-08-31T20:08:08.278Z,56.90
2018-08-31T20:10:39.545Z,57.10
2018-08-31T20:13:10.493Z,57.30
2018-08-31T20:15:41.060Z,57.20
2018-08-31T20:18:11.390Z,57.10
2018-08-31T20:20:41.848Z,57.10
2018-08-31T20:23:12.194Z,57.10
2018-08-31T20:25:42.761Z,57.20
2018-08-31T20:28:13.120Z,57.50
2018-08-31T20:30:43.423Z,57.20
2018-08-31T20:33:13.742Z,57.20
2018-08-31T20:35:44.050Z,57.30
2018-08-31T20:38:14.373Z,57.30
2018-08-31T20:40:44.912Z,57.40
2018-08-31T20:43:15.370Z,57.40
2018-08-31T20:45:45.781Z,57.60
2018-08-31T20:48:16.116Z,57.50
2018-08-31T20:50:46.415Z,57.60
2018-08-31T20:53:16.837Z,57.50
2018-08-31T20:55:47.136Z,57.60
2018-08-31T20:58:17.513Z,57.60
2018-08-31T21:00:47.817Z,57.60
2018-08-31T21:03:19.665Z,57.80
2018-08-31T21:05:50.663Z,57.80
2018-08-31T21:08:21.695Z,57.80
2018-08-31T21:10:52.284Z,57.60
2018-08-31T21:13:22.786Z,57.80
2018-08-31T21:15:53.140Z,57.60
2018-08-31T21:18:23.541Z,57.60
2018-08-31T21:20:53.862Z,57.60
2018-08-31T21:23:24.337Z,57.60
2018-08-31T21:25:54.717Z,57.70
2018-08-31T21:28:25.341Z,57.60
2018-08-31T21:30:55.656Z,57.80
2018-08-31T21:33:26.264Z,57.80
2018-08-31T21:35:56.596Z,57.80
2018-08-31T21:38:26.975Z,57.70
2018-08-31T21:40:57.324Z,57.80
2018-08-31T21:43:27.716Z,57.90
2018-08-31T21:45:58.068Z,57.80
2018-08-31T21:48:28.728Z,58.00
2018-08-31T21:50:59.121Z,57.80
2018-08-31T21:53:29.703Z,58.10
2018-08-31T21:56:00.064Z,58.00
2018-08-31T21:58:30.668Z,57.90
2018-08-31T22:01:06.525Z,58.00
2018-08-31T22:03:36.912Z,58.00
2018-08-31T22:06:07.233Z,58.20
2018-08-31T22:08:37.884Z,58.10
2018-08-31T22:11:09.329Z,58.10
2018-08-31T22:13:39.904Z,58.10
2018-08-31T22:16:10.447Z,58.20
2018-08-31T22:18:41.015Z,58.40
2018-08-31T22:21:11.327Z,58.40
2018-08-31T22:23:41.908Z,58.40
2018-08-31T22:26:12.564Z,58.40
2018-08-31T22:28:43.246Z,58.30
2018-08-31T22:31:13.621Z,58.40
2018-08-31T22:33:44.030Z,58.30
2018-08-31T22:36:14.667Z,58.30
2018-08-31T22:38:45.091Z,58.40
2018-08-31T22:41:15.700Z,58.40
2018-08-31T22:43:50.517Z,58.50
2018-08-31T22:46:23.187Z,58.50
2018-08-31T22:48:53.818Z,58.50
2018-08-31T22:51:24.431Z,58.70
2018-08-31T22:53:54.760Z,58.80
2018-08-31T22:56:25.053Z,58.90
2018-08-31T22:58:55.380Z,58.90
2018-08-31T23:01:25.685Z,58.90
2018-08-31T23:03:56.057Z,58.70
2018-08-31T23:06:26.593Z,58.90
2018-08-31T23:08:56.920Z,59.00
2018-08-31T23:11:27.222Z,58.90
2018-08-31T23:13:57.618Z,59.00
2018-08-31T23:16:28.285Z,59.10
2018-08-31T23:18:58.624Z,59.10
2018-08-31T23:21:28.908Z,59.10
2018-08-31T23:23:59.237Z,59.00
2018-08-31T23:26:29.783Z,59.30
2018-08-31T23:29:00.353Z,59.20
2018-08-31T23:31:30.908Z,59.30
2018-08-31T23:34:01.477Z,59.40
2018-08-31T23:36:31.773Z,59.50
2018-08-31T23:39:02.075Z,59.70
2018-08-31T23:41:32.371Z,59.70
2018-08-31T23:44:02.679Z,59.60
2018-08-31T23:46:32.983Z,59.60
2018-08-31T23:49:03.549Z,59.60
2018-08-31T23:51:33.845Z,59.50
2018-08-31T23:54:04.425Z,59.50
2018-08-31T23:56:34.714Z,59.40
2018-08-31T23:59:05.044Z,59.40
